Briefing drone pour Saint-just-saint-rambert

Rechercher une autre localisation

Conditions de vol :


Nous sommes le : Jeudi 09 février 2023
Il est 23:44 UTC (00:44 LT)

Lever de soleil : 06:27 UTC (07:27 LT)
Coucher de soleil : 17:27 UTC (18:27 LT)

Météo

L'essentiel des conditions de vol

VIGILANCE MÉTÉO FRANCE - Loire (42)
Pas de vigilances particulieres
CARTE TEMSI
CARTES DES FRONTS
METAR de LFMH
LFMH 082330Z AUTO VRB03KT 6000 NSC M05/M06 Q1030

Date d'émission: 08/02/2023
Heure d'émission: 23:30 UTC
Vent: Variable 3 KT (6 km/h)
Visibilité horizontale: 6000 m
Plafond : Pas de nuages significatifs (NSC)
Température: -5 °C
Point de rosée: -6 °C
Humidité: 93%
Pression (QNH): 1030 hPa
TAF de LFMH
LFMH 161901Z 1619/1712 CNL

Conditions prévues :

Heure d'émission : Bulletin éffectué le 16 à 19:00 UTC
Prévision : Valide du 16 a 19:00 UTC au 17 a 12:00 UTC
Nuages : à 0ft (0 m)
WEBCAM POUR SAINT-JUST-SAINT-RAMBERT

Réglementation

Voler en sécurité

CARTES AERONAUTIQUE 1/500.000
CARTE AZBA (Reseau basse altitude)
CARTES VAC (LFMH)
SUP AIP




Chargement des AIP...
NOTAM (SAINT-JUST-SAINT-RAMBERT + Terrain à proximité / FIR )




Chargement des NOTAMS...
CONTACT PREFECTURE 42
Loire (42) : [email protected]


Avertissement : Les données mises à disposition sont indicatives. Oxygène Drone ne pourra être tenu responsable de dégâts causés aux biens et aux personnes.